Time;durP1;ratioP1;P1;durP2;ratioP2;P2;SDS_P1;SDS_P2;PMS_P1;PMS_P2;Temp;Humidity;BMP_temperature;BMP_pressure;BME280_temperature;BME280_humidity;BME280_pressure;Samples;Min_cycle;Max_cycle;Signal;HPM_P1;HPM_P2
2023/08/07 00:01:55;;;;;;;0.6;0.6;;;;;;;;;;;;;
2023/08/07 00:04:20;;;;;;;0.4;0.4;;;;;;;;;;;;;
2023/08/07 00:06:46;;;;;;;0.4;0.4;;;;;;;;;;;;;
2023/08/07 00:09:11;;;;;;;0.7;0.5;;;;;;;;;;;;;
2023/08/07 00:11:37;;;;;;;0.5;0.5;;;;;;;;;;;;;
2023/08/07 00:14:03;;;;;;;1;0.3;;;;;;;;;;;;;
2023/08/07 00:16:28;;;;;;;0.8;0.4;;;;;;;;;;;;;
2023/08/07 00:18:55;;;;;;;0.4;0.4;;;;;;;;;;;;;
2023/08/07 00:21:18;;;;;;;0.5;0.5;;;;;;;;;;;;;
2023/08/07 00:23:43;;;;;;;0.8;0.4;;;;;;;;;;;;;
2023/08/07 00:26:08;;;;;;;0.5;0.5;;;;;;;;;;;;;
2023/08/07 00:28:33;;;;;;;0.9;0.5;;;;;;;;;;;;;
2023/08/07 00:30:58;;;;;;;1.3;0.5;;;;;;;;;;;;;
2023/08/07 00:33:24;;;;;;;1.6;0.5;;;;;;;;;;;;;
2023/08/07 00:35:48;;;;;;;1.4;0.6;;;;;;;;;;;;;
2023/08/07 00:38:13;;;;;;;0.9;0.4;;;;;;;;;;;;;
2023/08/07 00:40:39;;;;;;;1;0.5;;;;;;;;;;;;;
2023/08/07 00:43:07;;;;;;;0.6;0.5;;;;;;;;;;;;;
2023/08/07 00:45:32;;;;;;;1.2;0.7;;;;;;;;;;;;;
2023/08/07 00:47:58;;;;;;;0.6;0.6;;;;;;;;;;;;;
2023/08/07 00:50:23;;;;;;;0.6;0.6;;;;;;;;;;;;;
2023/08/07 00:52:49;;;;;;;0.9;0.6;;;;;;;;;;;;;
2023/08/07 00:55:14;;;;;;;1.1;0.6;;;;;;;;;;;;;
2023/08/07 00:57:39;;;;;;;1.1;0.6;;;;;;;;;;;;;
2023/08/07 01:00:04;;;;;;;0.5;0.5;;;;;;;;;;;;;
2023/08/07 01:02:30;;;;;;;0.9;0.6;;;;;;;;;;;;;
2023/08/07 01:04:55;;;;;;;1;0.8;;;;;;;;;;;;;
2023/08/07 01:07:21;;;;;;;0.8;0.8;;;;;;;;;;;;;
2023/08/07 01:09:46;;;;;;;0.7;0.7;;;;;;;;;;;;;
2023/08/07 01:12:15;;;;;;;0.7;0.7;;;;;;;;;;;;;
2023/08/07 01:14:40;;;;;;;1.1;0.8;;;;;;;;;;;;;
2023/08/07 01:17:06;;;;;;;1.2;0.7;;;;;;;;;;;;;
2023/08/07 01:19:31;;;;;;;1.9;0.9;;;;;;;;;;;;;
2023/08/07 01:21:56;;;;;;;0.9;0.7;;;;;;;;;;;;;
2023/08/07 01:24:21;;;;;;;1.4;0.8;;;;;;;;;;;;;
2023/08/07 01:29:31;;;;;;;0.9;0.7;;;;;;;;;;;;;
2023/08/07 01:31:56;;;;;;;1.3;0.8;;;;;;;;;;;;;
2023/08/07 01:34:22;;;;;;;1.1;0.7;;;;;;;;;;;;;
2023/08/07 01:36:47;;;;;;;0.8;0.7;;;;;;;;;;;;;
2023/08/07 01:39:15;;;;;;;1.1;0.9;;;;;;;;;;;;;
2023/08/07 01:41:40;;;;;;;0.8;0.7;;;;;;;;;;;;;
2023/08/07 01:44:06;;;;;;;0.8;0.8;;;;;;;;;;;;;
2023/08/07 01:46:31;;;;;;;1.9;0.9;;;;;;;;;;;;;
2023/08/07 01:48:57;;;;;;;0.8;0.8;;;;;;;;;;;;;
2023/08/07 01:51:22;;;;;;;1.8;0.8;;;;;;;;;;;;;
2023/08/07 01:53:47;;;;;;;0.8;0.7;;;;;;;;;;;;;
2023/08/07 01:56:12;;;;;;;1.1;0.7;;;;;;;;;;;;;
2023/08/07 01:58:37;;;;;;;0.8;0.7;;;;;;;;;;;;;
2023/08/07 02:01:02;;;;;;;3.3;0.8;;;;;;;;;;;;;
2023/08/07 02:03:28;;;;;;;1.1;0.7;;;;;;;;;;;;;
2023/08/07 02:05:53;;;;;;;1.1;0.7;;;;;;;;;;;;;
2023/08/07 02:08:19;;;;;;;1.5;0.8;;;;;;;;;;;;;
2023/08/07 02:10:44;;;;;;;1.4;0.7;;;;;;;;;;;;;
2023/08/07 02:13:10;;;;;;;1.1;0.7;;;;;;;;;;;;;
2023/08/07 02:15:35;;;;;;;2;0.8;;;;;;;;;;;;;
2023/08/07 02:18:00;;;;;;;0.6;0.6;;;;;;;;;;;;;
2023/08/07 02:20:26;;;;;;;0.7;0.7;;;;;;;;;;;;;
2023/08/07 02:22:51;;;;;;;0.7;0.7;;;;;;;;;;;;;
2023/08/07 02:25:16;;;;;;;0.7;0.7;;;;;;;;;;;;;
2023/08/07 02:27:41;;;;;;;0.7;0.6;;;;;;;;;;;;;
2023/08/07 02:30:07;;;;;;;0.8;0.7;;;;;;;;;;;;;
2023/08/07 02:32:32;;;;;;;0.9;0.6;;;;;;;;;;;;;
2023/08/07 02:34:57;;;;;;;0.6;0.5;;;;;;;;;;;;;
2023/08/07 02:37:24;;;;;;;1;0.7;;;;;;;;;;;;;
2023/08/07 02:39:49;;;;;;;0.6;0.6;;;;;;;;;;;;;
2023/08/07 02:42:14;;;;;;;1;0.7;;;;;;;;;;;;;
2023/08/07 02:44:39;;;;;;;1;0.7;;;;;;;;;;;;;
2023/08/07 02:47:05;;;;;;;0.9;0.8;;;;;;;;;;;;;
2023/08/07 02:49:30;;;;;;;0.7;0.7;;;;;;;;;;;;;
2023/08/07 02:51:58;;;;;;;1.2;0.8;;;;;;;;;;;;;
2023/08/07 02:54:23;;;;;;;2.2;0.9;;;;;;;;;;;;;
2023/08/07 02:56:48;;;;;;;0.6;0.6;;;;;;;;;;;;;
2023/08/07 02:59:13;;;;;;;0.7;0.6;;;;;;;;;;;;;
2023/08/07 03:01:40;;;;;;;1.5;0.7;;;;;;;;;;;;;
2023/08/07 03:04:06;;;;;;;2.1;0.6;;;;;;;;;;;;;
2023/08/07 03:06:31;;;;;;;0.6;0.6;;;;;;;;;;;;;
2023/08/07 03:08:56;;;;;;;1;0.9;;;;;;;;;;;;;
2023/08/07 03:11:21;;;;;;;1;0.6;;;;;;;;;;;;;
2023/08/07 03:13:48;;;;;;;0.9;0.7;;;;;;;;;;;;;
2023/08/07 03:16:14;;;;;;;0.6;0.6;;;;;;;;;;;;;
2023/08/07 03:18:39;;;;;;;0.6;0.6;;;;;;;;;;;;;
2023/08/07 03:21:04;;;;;;;0.8;0.8;;;;;;;;;;;;;
2023/08/07 03:23:29;;;;;;;1.7;0.7;;;;;;;;;;;;;
2023/08/07 03:25:56;;;;;;;1;0.8;;;;;;;;;;;;;
2023/08/07 03:28:21;;;;;;;0.9;0.8;;;;;;;;;;;;;
2023/08/07 03:30:47;;;;;;;0.8;0.8;;;;;;;;;;;;;
2023/08/07 03:33:12;;;;;;;1.6;0.9;;;;;;;;;;;;;
2023/08/07 03:35:38;;;;;;;1;0.9;;;;;;;;;;;;;
2023/08/07 03:38:03;;;;;;;1.3;1.1;;;;;;;;;;;;;
2023/08/07 03:40:29;;;;;;;3.1;2.9;;;;;;;;;;;;;
2023/08/07 03:42:54;;;;;;;1.4;1.1;;;;;;;;;;;;;
2023/08/07 03:45:19;;;;;;;1.3;1.2;;;;;;;;;;;;;
2023/08/07 03:47:44;;;;;;;3.1;1.1;;;;;;;;;;;;;
2023/08/07 03:50:15;;;;;;;0.8;0.8;;;;;;;;;;;;;
2023/08/07 03:52:42;;;;;;;1.5;0.6;;;;;;;;;;;;;
2023/08/07 03:55:07;;;;;;;1.9;0.9;;;;;;;;;;;;;
2023/08/07 03:57:32;;;;;;;0.7;0.7;;;;;;;;;;;;;
2023/08/07 03:59:58;;;;;;;0.6;0.6;;;;;;;;;;;;;
2023/08/07 04:02:31;;;;;;;0.7;0.7;;;;;;;10.54;99.8125;937.4227;;;;
2023/08/07 04:04:56;;;;;;;1.4;0.5;;;;;;;10.6;100;937.4614;;;;
2023/08/07 04:07:26;;;;;;;1.2;0.7;;;;;;;10.59;99.99805;937.3681;;;;
2023/08/07 04:09:54;;;;;;;0.6;0.6;;;;;;;10.45;99.58789;937.3551;;;;
2023/08/07 04:12:19;;;;;;;1.4;0.7;;;;;;;10.18;100;937.2683;;;;
2023/08/07 04:14:48;;;;;;;0.6;0.6;;;;;;;10.23;100;937.3226;;;;
2023/08/07 04:17:13;;;;;;;1.5;0.7;;;;;;;10.18;99.99121;937.3303;;;;
2023/08/07 04:19:41;;;;;;;0.7;0.6;;;;;;;10.27;99.42285;937.413;;;;
2023/08/07 04:22:06;;;;;;;0.6;0.6;;;;;;;10.28;99.05762;937.5292;;;;
2023/08/07 04:24:34;;;;;;;0.7;0.5;;;;;;;10.16;98.6416;937.553;;;;
2023/08/07 04:26:59;;;;;;;0.6;0.6;;;;;;;10.1;98.9707;937.5261;;;;
2023/08/07 04:29:27;;;;;;;0.6;0.6;;;;;;;10.04;97.62402;937.5056;;;;
2023/08/07 04:31:52;;;;;;;0.8;0.6;;;;;;;10.09;98.77539;937.5857;;;;
2023/08/07 04:34:21;;;;;;;0.4;0.4;;;;;;;10.24;99.27539;937.6506;;;;
2023/08/07 04:36:47;;;;;;;0.9;0.6;;;;;;;10.31;99.77148;937.7531;;;;
2023/08/07 04:39:18;;;;;;;0.8;0.5;;;;;;;10.4;98.58496;937.7675;;;;
2023/08/07 04:41:41;;;;;;;0.5;0.5;;;;;;;10.51;98.79199;937.6947;;;;
2023/08/07 04:44:09;;;;;;;0.5;0.5;;;;;;;10.61;98.65332;937.7178;;;;
2023/08/07 04:46:34;;;;;;;0.7;0.6;;;;;;;10.7;97.50879;937.5539;;;;
2023/08/07 04:49:00;;;;;;;0.9;0.5;;;;;;;10.8;97.23535;937.7332;;;;
2023/08/07 04:51:25;;;;;;;0.8;0.7;;;;;;;10.66;98.41406;937.6668;;;;
2023/08/07 04:53:52;;;;;;;0.7;0.7;;;;;;;10.63;99.02441;937.7126;;;;
2023/08/07 04:56:17;;;;;;;0.7;0.5;;;;;;;10.72;99.02051;937.7572;;;;
2023/08/07 04:58:42;;;;;;;1.4;0.8;;;;;;;10.69;98.62598;937.804;;;;
2023/08/07 05:01:08;;;;;;;0.7;0.7;;;;;;;10.72;99.02246;937.6975;;;;
2023/08/07 05:03:35;;;;;;;0.7;0.7;;;;;;;10.73;99.27539;937.7566;;;;
2023/08/07 05:06:00;;;;;;;1.2;0.7;;;;;;;10.75;99.74805;937.8275;;;;
2023/08/07 05:08:28;;;;;;;0.5;0.5;;;;;;;10.75;100;937.8499;;;;
2023/08/07 05:10:57;;;;;;;0.9;0.8;;;;;;;10.72;100;937.9277;;;;
2023/08/07 05:13:22;;;;;;;1.1;0.6;;;;;;;10.73;100;937.8965;;;;
2023/08/07 05:15:51;;;;;;;0.9;0.6;;;;;;;10.62;100;937.9579;;;;
2023/08/07 05:18:16;;;;;;;0.9;0.7;;;;;;;10.77;100;937.8962;;;;
2023/08/07 05:20:42;;;;;;;1.3;0.6;;;;;;;10.61;100;937.8197;;;;
2023/08/07 05:23:07;;;;;;;1.2;0.5;;;;;;;10.64;100;938.0154;;;;
2023/08/07 05:25:32;;;;;;;1;0.6;;;;;;;10.69;100;938.0436;;;;
2023/08/07 05:27:58;;;;;;;1.4;0.5;;;;;;;10.71;100;938.0717;;;;
2023/08/07 05:30:27;;;;;;;0.8;0.6;;;;;;;10.81;99.74023;938.0399;;;;
2023/08/07 05:32:52;;;;;;;0.7;0.6;;;;;;;10.82;99.41113;938.014;;;;
2023/08/07 05:35:20;;;;;;;0.8;0.8;;;;;;;10.94;100;938.022;;;;
2023/08/07 05:37:46;;;;;;;0.8;0.7;;;;;;;11.07;99.95801;938.0081;;;;
2023/08/07 05:40:15;;;;;;;1.6;0.7;;;;;;;11.1;98.41211;937.9774;;;;
2023/08/07 05:42:40;;;;;;;0.7;0.6;;;;;;;11.12;99.79883;938.1296;;;;
2023/08/07 05:45:05;;;;;;;2.6;0.7;;;;;;;11.1;100;938.073;;;;
2023/08/07 05:48:17;;;;;;;1.9;0.8;;;;;;;11.25;99.54297;938.0008;;;;
2023/08/07 05:51:21;;;;;;;0.8;0.8;;;;;;;11.33;98.95508;938.0492;;;;
2023/08/07 05:53:51;;;;;;;0.7;0.5;;;;;;;11.39;98.75195;938.1164;;;;
2023/08/07 05:56:17;;;;;;;1;0.6;;;;;;;11.58;96.87207;938.1473;;;;
2023/08/07 05:58:41;;;;;;;1;0.6;;;;;;;11.58;96.81543;938.18;;;;
2023/08/07 06:01:07;;;;;;;0.7;0.6;;;;;;;11.39;97.32227;938.0861;;;;
2023/08/07 06:03:33;;;;;;;0.8;0.8;;;;;;;11.28;97.33008;938.2019;;;;
2023/08/07 06:05:58;;;;;;;0.7;0.6;;;;;;;11.35;98.20605;938.2183;;;;
2023/08/07 06:08:23;;;;;;;0.7;0.6;;;;;;;11.31;98.72168;938.1184;;;;
2023/08/07 06:10:49;;;;;;;0.9;0.8;;;;;;;11.31;98.41309;938.1144;;;;
2023/08/07 06:13:14;;;;;;;1.1;0.7;;;;;;;11.34;98.39844;938.0699;;;;
2023/08/07 06:15:43;;;;;;;0.7;0.7;;;;;;;11.48;98.34961;938.1141;;;;
2023/08/07 06:18:08;;;;;;;0.8;0.8;;;;;;;11.63;98.55371;938.1694;;;;
2023/08/07 06:20:34;;;;;;;0.8;0.7;;;;;;;11.65;98.39941;938.136;;;;
2023/08/07 06:22:59;;;;;;;1.4;1.2;;;;;;;11.78;97.74121;938.1909;;;;
2023/08/07 06:25:24;;;;;;;2;1.2;;;;;;;11.73;98.40625;938.1284;;;;
2023/08/07 06:27:50;;;;;;;1.7;0.9;;;;;;;11.88;97.09961;938.1248;;;;
2023/08/07 06:30:15;;;;;;;2.1;1;;;;;;;12;95.51074;938.1038;;;;
2023/08/07 06:32:44;;;;;;;2.5;2.3;;;;;;;12.07;96.68359;938.0516;;;;
2023/08/07 06:35:09;;;;;;;2.2;1.7;;;;;;;12.33;94.80371;938.0471;;;;
2023/08/07 06:37:36;;;;;;;2.2;2;;;;;;;12.62;94.24805;938.0433;;;;
2023/08/07 06:40:01;;;;;;;2;1.8;;;;;;;12.84;91.34668;938.1117;;;;
2023/08/07 06:42:27;;;;;;;2.4;2.2;;;;;;;12.98;91.43262;938.1237;;;;
2023/08/07 06:44:52;;;;;;;3.1;1.5;;;;;;;13.26;89.40039;938.0828;;;;
2023/08/07 06:47:20;;;;;;;0.5;0.5;;;;;;;13.03;87.10156;938.0265;;;;
2023/08/07 06:49:45;;;;;;;1;0.7;;;;;;;12.77;89.3916;938.017;;;;
2023/08/07 06:52:15;;;;;;;1.1;0.7;;;;;;;12.92;87.51563;938.0478;;;;
2023/08/07 06:54:40;;;;;;;1.4;0.9;;;;;;;13.19;87.88086;938.0435;;;;
2023/08/07 06:57:06;;;;;;;0.5;0.5;;;;;;;13.51;87.30273;937.9291;;;;
2023/08/07 06:59:31;;;;;;;0.9;0.7;;;;;;;14;87.12402;938.0176;;;;
2023/08/07 07:02:02;;;;;;;1.9;1.7;;;;;;;13.56;85.00195;938.0226;;;;
2023/08/07 07:04:32;;;;;;;0.8;0.8;;;;;;;13.89;85.64063;938.0277;;;;
2023/08/07 07:07:02;;;;;;;7.2;3.9;;;;;;;14.19;86.01074;938.1284;;;;
2023/08/07 07:09:28;;;;;;;23.9;13.5;;;;;;;14.04;85.96875;938.0867;;;;
2023/08/07 07:11:52;;;;;;;2.8;2;;;;;;;13.87;81.9082;938.2015;;;;
2023/08/07 07:14:19;;;;;;;1.5;1.4;;;;;;;13.92;80.59473;938.4086;;;;
2023/08/07 07:16:44;;;;;;;1.4;1;;;;;;;13.77;84.37598;938.2151;;;;
2023/08/07 07:19:09;;;;;;;1;0.8;;;;;;;12.57;83.59277;938.0669;;;;
2023/08/07 07:21:36;;;;;;;1.1;1;;;;;;;12.91;85.66602;938.2084;;;;
2023/08/07 07:24:03;;;;;;;2;1;;;;;;;14.31;83.40723;938.3549;;;;
2023/08/07 07:26:28;;;;;;;2.2;1;;;;;;;14.98;77.6875;938.3239;;;;
2023/08/07 07:28:56;;;;;;;0.9;0.8;;;;;;;14.91;78.85254;938.2755;;;;
2023/08/07 07:31:21;;;;;;;1.4;1.3;;;;;;;14.49;75.46875;938.1974;;;;
2023/08/07 07:33:46;;;;;;;0.9;0.8;;;;;;;13.98;74.67773;938.3044;;;;
2023/08/07 07:36:11;;;;;;;0.8;0.8;;;;;;;13.66;74.9707;938.3578;;;;
2023/08/07 07:38:36;;;;;;;1;0.7;;;;;;;13.21;74.09961;938.3356;;;;
2023/08/07 07:41:02;;;;;;;0.4;0.4;;;;;;;13.03;73.85059;938.3198;;;;
2023/08/07 07:43:27;;;;;;;1.2;1.1;;;;;;;13.02;80.87695;938.3014;;;;
2023/08/07 07:45:54;;;;;;;1.1;0.9;;;;;;;13.01;77.96875;938.4106;;;;
2023/08/07 07:48:19;;;;;;;0.7;0.7;;;;;;;13.03;76.54785;938.5156;;;;
2023/08/07 07:50:48;;;;;;;0.7;0.7;;;;;;;13.06;75.34863;938.4373;;;;
2023/08/07 07:53:13;;;;;;;0.7;0.7;;;;;;;13.21;74.21289;938.4696;;;;
2023/08/07 07:55:41;;;;;;;0.8;0.6;;;;;;;13.3;75.0918;938.4658;;;;
2023/08/07 07:58:11;;;;;;;0.5;0.5;;;;;;;13.17;75.03418;938.4925;;;;
2023/08/07 08:00:38;;;;;;;0.6;0.5;;;;;;;13.27;74.55762;938.5019;;;;
2023/08/07 08:03:02;;;;;;;0.6;0.6;;;;;;;13.43;74.78027;938.4492;;;;
2023/08/07 08:05:27;;;;;;;0.3;0.3;;;;;;;14.64;66.76855;938.4261;;;;
2023/08/07 08:07:52;;;;;;;0.5;0.5;;;;;;;14.77;70.19043;938.4285;;;;
2023/08/07 08:10:18;;;;;;;0.5;0.5;;;;;;;14.76;68.01074;938.5103;;;;
2023/08/07 08:12:44;;;;;;;0.5;0.5;;;;;;;14.63;65.99512;938.584;;;;
2023/08/07 08:15:12;;;;;;;0.6;0.6;;;;;;;14.35;67.8418;938.6309;;;;
2023/08/07 08:17:38;;;;;;;0.6;0.6;;;;;;;14.14;68.13184;938.6964;;;;
2023/08/07 08:20:06;;;;;;;0.4;0.4;;;;;;;13.86;72.44922;938.8323;;;;
2023/08/07 08:22:31;;;;;;;0.5;0.5;;;;;;;13.37;72.37891;938.7944;;;;
2023/08/07 08:24:58;;;;;;;1.6;0.5;;;;;;;13.35;75.6416;938.7825;;;;
2023/08/07 08:27:25;;;;;;;0.6;0.4;;;;;;;14.95;73.55176;938.6994;;;;
2023/08/07 08:29:48;;;;;;;0.4;0.3;;;;;;;15.21;69.87109;938.6399;;;;
2023/08/07 08:32:13;;;;;;;0.5;0.5;;;;;;;14.63;71.15918;938.6449;;;;
2023/08/07 08:34:38;;;;;;;0.5;0.4;;;;;;;13.98;67.92285;938.6342;;;;
2023/08/07 08:37:05;;;;;;;0.4;0.4;;;;;;;13.81;68.75;938.6824;;;;
2023/08/07 08:39:30;;;;;;;0.4;0.4;;;;;;;13.47;70.17676;938.7626;;;;
2023/08/07 08:41:57;;;;;;;1.3;1.2;;;;;;;13.13;73.76465;938.9586;;;;
2023/08/07 08:44:22;;;;;;;1.4;0.9;;;;;;;13.07;79.56641;938.9386;;;;
2023/08/07 08:46:48;;;;;;;0.7;0.5;;;;;;;12.84;78.69531;938.9028;;;;
2023/08/07 08:49:13;;;;;;;1.1;0.6;;;;;;;12.76;81.34473;938.9958;;;;
2023/08/07 08:51:38;;;;;;;0.6;0.6;;;;;;;13.11;79.08887;938.9889;;;;
2023/08/07 08:54:05;;;;;;;0.9;0.8;;;;;;;13.55;74.12207;938.9683;;;;
2023/08/07 08:56:30;;;;;;;0.5;0.5;;;;;;;13.64;78.10547;938.9941;;;;
2023/08/07 08:58:57;;;;;;;0.6;0.6;;;;;;;13.54;76.37402;938.9874;;;;
2023/08/07 09:01:23;;;;;;;1.2;0.7;;;;;;;13.55;75.35449;938.9626;;;;
2023/08/07 09:03:49;;;;;;;0.6;0.6;;;;;;;13.27;78.31445;938.9265;;;;
2023/08/07 09:06:14;;;;;;;2;0.7;;;;;;;13.25;75.55371;938.9536;;;;
2023/08/07 09:08:39;;;;;;;0.6;0.6;;;;;;;13.44;76.73633;938.9788;;;;
2023/08/07 09:11:05;;;;;;;0.6;0.5;;;;;;;13.53;77.51074;939.0002;;;;
2023/08/07 09:13:30;;;;;;;0.5;0.5;;;;;;;13.7;78.03613;939.1677;;;;
2023/08/07 09:15:55;;;;;;;0.6;0.6;;;;;;;13.51;75.35645;939.2179;;;;
2023/08/07 09:18:20;;;;;;;0.7;0.6;;;;;;;13.52;75.7041;939.149;;;;
2023/08/07 09:20:47;;;;;;;0.6;0.6;;;;;;;13.76;79.57715;939.2332;;;;
2023/08/07 09:23:12;;;;;;;0.9;0.5;;;;;;;13.87;78.22656;939.2061;;;;
2023/08/07 09:25:40;;;;;;;0.6;0.5;;;;;;;14.33;78.6543;939.2503;;;;
2023/08/07 09:28:06;;;;;;;0.5;0.5;;;;;;;14.7;74.2373;939.2313;;;;
2023/08/07 09:30:31;;;;;;;0.5;0.4;;;;;;;14.96;73.95996;939.0673;;;;
2023/08/07 09:32:56;;;;;;;0.9;0.7;;;;;;;14.79;74.06738;939.0817;;;;
2023/08/07 09:35:23;;;;;;;1.2;0.6;;;;;;;14.74;71.77734;938.9929;;;;
2023/08/07 09:37:48;;;;;;;1;0.5;;;;;;;15.01;70.46094;938.9724;;;;
2023/08/07 09:40:17;;;;;;;0.4;0.4;;;;;;;15.83;68.16602;938.9644;;;;
2023/08/07 09:42:42;;;;;;;0.3;0.3;;;;;;;16.18;63.51172;939.0527;;;;
2023/08/07 09:45:11;;;;;;;0.8;0.3;;;;;;;16.09;64.16992;939.0262;;;;
2023/08/07 09:47:39;;;;;;;0.3;0.3;;;;;;;15.96;65.94336;939.0546;;;;
2023/08/07 09:50:04;;;;;;;0.3;0.3;;;;;;;15.96;62.39355;939.0215;;;;
2023/08/07 09:52:31;;;;;;;0.3;0.3;;;;;;;16.43;64.3252;938.998;;;;
2023/08/07 09:54:54;;;;;;;0.5;0.4;;;;;;;16.48;67.70996;938.9903;;;;
2023/08/07 09:57:20;;;;;;;0.3;0.3;;;;;;;16.76;62.54199;939.0187;;;;
2023/08/07 09:59:45;;;;;;;0.5;0.5;;;;;;;17.18;63.90039;938.9522;;;;
2023/08/07 10:02:11;;;;;;;0.3;0.3;;;;;;;16.83;60.57129;938.9554;;;;
2023/08/07 10:04:38;;;;;;;0.3;0.3;;;;;;;17.02;63.94824;938.9778;;;;
2023/08/07 10:07:03;;;;;;;0.5;0.3;;;;;;;17.75;58.58594;938.9652;;;;
2023/08/07 10:09:29;;;;;;;0.4;0.4;;;;;;;17.85;57.40332;938.992;;;;
2023/08/07 10:11:54;;;;;;;0.3;0.3;;;;;;;17.6;61.83887;939.0823;;;;
2023/08/07 10:14:19;;;;;;;0.3;0.3;;;;;;;17.12;62.52344;939.1319;;;;
2023/08/07 10:16:45;;;;;;;0.3;0.3;;;;;;;16.76;60.05273;939.2076;;;;
2023/08/07 10:19:11;;;;;;;1.2;0.5;;;;;;;16.3;62.61621;939.1857;;;;
2023/08/07 10:21:36;;;;;;;0.4;0.4;;;;;;;16.13;65.39063;939.1713;;;;
2023/08/07 10:24:03;;;;;;;0.9;0.4;;;;;;;16.29;63.34277;939.1972;;;;
2023/08/07 10:26:28;;;;;;;0.5;0.5;;;;;;;16.99;63.79199;939.1953;;;;
2023/08/07 10:28:55;;;;;;;0.4;0.4;;;;;;;17.27;62.33789;939.1717;;;;
2023/08/07 10:31:21;;;;;;;0.7;0.4;;;;;;;17.18;62.63672;939.0874;;;;
2023/08/07 10:33:46;;;;;;;0.3;0.3;;;;;;;16.8;59.39746;939.0576;;;;
2023/08/07 10:36:12;;;;;;;0.5;0.3;;;;;;;17.28;59.10254;939.1192;;;;
2023/08/07 10:38:38;;;;;;;0.3;0.3;;;;;;;17.75;61.25684;939.0402;;;;
2023/08/07 10:41:03;;;;;;;0.4;0.4;;;;;;;17.88;54.875;939.0536;;;;
2023/08/07 10:43:29;;;;;;;0.3;0.3;;;;;;;18.2;57.14648;939.0754;;;;
2023/08/07 10:45:53;;;;;;;0.5;0.3;;;;;;;18.22;54.94238;938.9705;;;;
2023/08/07 10:48:18;;;;;;;0.3;0.3;;;;;;;18.5;54.54688;938.9388;;;;
2023/08/07 10:50:44;;;;;;;0.4;0.3;;;;;;;18.94;51.45801;938.95;;;;
2023/08/07 10:53:09;;;;;;;0.3;0.3;;;;;;;20.01;48.44434;938.8334;;;;
2023/08/07 10:55:37;;;;;;;0.5;0.3;;;;;;;20.11;50.03125;938.7841;;;;
2023/08/07 10:58:03;;;;;;;0.3;0.3;;;;;;;20.41;47.04004;938.7515;;;;
2023/08/07 11:00:27;;;;;;;0.5;0.3;;;;;;;20.59;45.83301;938.7014;;;;
2023/08/07 11:02:52;;;;;;;1.9;0.5;;;;;;;20.15;44.39746;938.6361;;;;
2023/08/07 11:05:18;;;;;;;0.4;0.3;;;;;;;19.67;44.75781;938.6429;;;;
2023/08/07 11:07:44;;;;;;;0.3;0.3;;;;;;;19.51;44.26367;938.6431;;;;
2023/08/07 11:10:10;;;;;;;0.4;0.4;;;;;;;19.89;44.61719;938.5932;;;;
2023/08/07 11:12:36;;;;;;;0.5;0.5;;;;;;;20.14;44.75879;938.6014;;;;
2023/08/07 11:15:01;;;;;;;0.5;0.5;;;;;;;19.98;45.12793;938.5311;;;;
2023/08/07 11:17:26;;;;;;;0.4;0.4;;;;;;;20.39;44.55078;938.6306;;;;
2023/08/07 11:19:55;;;;;;;0.8;0.4;;;;;;;21.15;41.45703;938.5053;;;;
2023/08/07 11:22:20;;;;;;;0.6;0.6;;;;;;;20.98;41.27734;938.6307;;;;
2023/08/07 11:24:45;;;;;;;0.5;0.5;;;;;;;21.46;42.03613;938.6025;;;;
2023/08/07 11:27:10;;;;;;;0.2;0.2;;;;;;;21.19;43.34473;938.5396;;;;
2023/08/07 11:29:36;;;;;;;1.9;0.4;;;;;;;21.33;43.83789;938.5204;;;;
2023/08/07 11:32:01;;;;;;;1.3;0.5;;;;;;;21.64;44.59473;938.6255;;;;
2023/08/07 11:34:27;;;;;;;0.5;0.5;;;;;;;22.13;41.83105;938.5674;;;;
2023/08/07 11:36:54;;;;;;;0.3;0.3;;;;;;;22.48;38.26074;938.5592;;;;
2023/08/07 11:39:19;;;;;;;0.4;0.4;;;;;;;21.4;40.11133;938.5035;;;;
2023/08/07 11:41:44;;;;;;;0.4;0.4;;;;;;;20.86;43.52246;938.4757;;;;
2023/08/07 11:44:09;;;;;;;0.4;0.3;;;;;;;21.33;42.62012;938.4291;;;;
2023/08/07 11:46:37;;;;;;;1.1;0.5;;;;;;;21.73;41.88574;938.445;;;;
2023/08/07 11:49:03;;;;;;;0.4;0.3;;;;;;;22.09;40.60742;938.3297;;;;
2023/08/07 11:51:28;;;;;;;0.5;0.5;;;;;;;22.37;41.60547;938.416;;;;
2023/08/07 11:53:56;;;;;;;0.5;0.5;;;;;;;21.1;39.62793;938.25;;;;
2023/08/07 11:56:18;;;;;;;0.3;0.3;;;;;;;21.5;43.32715;938.4011;;;;
2023/08/07 11:58:45;;;;;;;0.7;0.5;;;;;;;20.32;41.96289;938.3672;;;;
2023/08/07 12:01:08;;;;;;;0.3;0.3;;;;;;;19.38;45.68359;938.5773;;;;
2023/08/07 12:03:34;;;;;;;0.6;0.5;;;;;;;18.65;47.00391;938.6735;;;;
2023/08/07 12:05:58;;;;;;;0.8;0.4;;;;;;;18.25;47.65918;938.8822;;;;
2023/08/07 12:08:23;;;;;;;0.8;0.5;;;;;;;17.87;50.51953;938.9482;;;;
2023/08/07 12:10:48;;;;;;;0.4;0.4;;;;;;;18.02;50.75781;938.9931;;;;
2023/08/07 12:13:14;;;;;;;0.7;0.6;;;;;;;17.79;51.76563;939.0193;;;;
2023/08/07 12:15:39;;;;;;;0.6;0.6;;;;;;;17.56;51.77344;939.1764;;;;
2023/08/07 12:18:04;;;;;;;0.7;0.6;;;;;;;17.6;51.42969;939.406;;;;
2023/08/07 12:20:30;;;;;;;0.5;0.5;;;;;;;17.37;58.51172;939.5703;;;;
2023/08/07 12:22:55;;;;;;;1.8;0.6;;;;;;;16.96;65.94238;939.82;;;;
2023/08/07 12:25:21;;;;;;;0.9;0.8;;;;;;;16.54;67.21191;939.8296;;;;
2023/08/07 12:27:48;;;;;;;6.2;0.9;;;;;;;15.35;71.63477;939.6718;;;;
2023/08/07 12:30:16;;;;;;;1;0.6;;;;;;;14.69;76.1377;939.6489;;;;
2023/08/07 12:32:45;;;;;;;1.9;0.6;;;;;;;15.37;79.00488;939.6516;;;;
2023/08/07 12:35:11;;;;;;;2.9;0.9;;;;;;;15.32;73.29199;939.6279;;;;
2023/08/07 12:37:37;;;;;;;0.6;0.5;;;;;;;15.88;71.74512;939.5284;;;;
2023/08/07 12:40:05;;;;;;;0.6;0.4;;;;;;;16.51;72.4043;939.514;;;;
2023/08/07 12:42:28;;;;;;;0.6;0.5;;;;;;;17.41;70.39551;939.5408;;;;
2023/08/07 12:44:55;;;;;;;0.3;0.3;;;;;;;17.58;67.94043;939.54;;;;
2023/08/07 12:47:20;;;;;;;0.4;0.4;;;;;;;18.07;65.56445;939.4703;;;;
2023/08/07 12:49:47;;;;;;;0.3;0.3;;;;;;;18.02;58.80762;939.3645;;;;
2023/08/07 12:52:10;;;;;;;0.4;0.4;;;;;;;17.55;63.85059;939.3271;;;;
2023/08/07 12:54:36;;;;;;;0.5;0.3;;;;;;;17.78;64.24414;939.3409;;;;
2023/08/07 12:57:01;;;;;;;0.3;0.3;;;;;;;18.69;63.17773;939.3761;;;;
2023/08/07 12:59:27;;;;;;;0.9;0.3;;;;;;;19.74;58.45508;939.4847;;;;
2023/08/07 13:01:53;;;;;;;0.4;0.4;;;;;;;19.49;53.58496;939.528;;;;
2023/08/07 13:04:18;;;;;;;0.2;0.2;;;;;;;19.04;51.5166;939.2927;;;;
2023/08/07 13:06:44;;;;;;;0.8;0.4;;;;;;;18.83;50.08398;939.509;;;;
2023/08/07 13:09:09;;;;;;;0.4;0.4;;;;;;;18.07;54.83008;939.447;;;;
2023/08/07 13:11:36;;;;;;;0.5;0.5;;;;;;;17.65;57.17969;939.5287;;;;
2023/08/07 13:14:01;;;;;;;0.5;0.5;;;;;;;17.57;54.90625;939.5442;;;;
2023/08/07 13:16:28;;;;;;;0.4;0.4;;;;;;;17.3;56.71777;939.4673;;;;
2023/08/07 13:18:53;;;;;;;0.3;0.3;;;;;;;17.17;56.10938;939.3242;;;;
2023/08/07 13:21:20;;;;;;;0.5;0.4;;;;;;;17.57;56.58984;939.425;;;;
2023/08/07 13:23:45;;;;;;;0.4;0.4;;;;;;;18.04;56.04688;939.4128;;;;
2023/08/07 13:26:11;;;;;;;0.4;0.4;;;;;;;18.04;51.11035;939.4579;;;;
2023/08/07 13:28:37;;;;;;;0.4;0.4;;;;;;;18.1;55.15918;939.527;;;;
2023/08/07 13:31:03;;;;;;;0.6;0.6;;;;;;;18.3;56.32324;939.5544;;;;
2023/08/07 13:33:28;;;;;;;2.8;1.1;;;;;;;18.64;55.95898;939.5545;;;;
2023/08/07 13:35:55;;;;;;;0.4;0.4;;;;;;;18.55;58.01855;939.7217;;;;
2023/08/07 13:38:20;;;;;;;0.3;0.3;;;;;;;18.01;59.73535;939.7241;;;;
2023/08/07 13:40:46;;;;;;;0.6;0.6;;;;;;;18.37;58.41309;939.7208;;;;
2023/08/07 13:43:11;;;;;;;0.7;0.7;;;;;;;18.66;55.63672;939.772;;;;
2023/08/07 13:45:38;;;;;;;0.5;0.5;;;;;;;18.61;55.97852;939.736;;;;
2023/08/07 13:48:03;;;;;;;0.8;0.6;;;;;;;18.63;56.52832;939.829;;;;
2023/08/07 13:50:29;;;;;;;0.6;0.5;;;;;;;18.95;57.88477;939.81;;;;
2023/08/07 13:52:54;;;;;;;1.9;0.5;;;;;;;19.38;57.1709;939.8452;;;;
2023/08/07 13:55:20;;;;;;;0.5;0.5;;;;;;;19.3;56.71875;939.758;;;;
2023/08/07 13:57:45;;;;;;;0.5;0.5;;;;;;;19.52;58.22754;939.8949;;;;
2023/08/07 14:00:14;;;;;;;0.5;0.5;;;;;;;19.92;56.10938;939.707;;;;
2023/08/07 14:02:39;;;;;;;0.5;0.5;;;;;;;19.72;53.86914;939.6501;;;;
2023/08/07 14:05:04;;;;;;;0.5;0.5;;;;;;;19.19;52.59375;939.6697;;;;
2023/08/07 14:07:41;;;;;;;0.7;0.7;;;;;;;19.37;48.35156;939.6716;;;;
2023/08/07 14:10:13;;;;;;;0.8;0.6;;;;;;;18.99;54.10547;939.7712;;;;
2023/08/07 14:12:40;;;;;;;0.6;0.5;;;;;;;18.9;57.01563;939.9136;;;;
2023/08/07 14:15:17;;;;;;;1;0.5;;;;;;;18.66;54.37988;939.8098;;;;
2023/08/07 14:17:41;;;;;;;0.4;0.4;;;;;;;19.05;53.8457;940.0318;;;;
2023/08/07 14:20:13;;;;;;;0.4;0.4;;;;;;;18.49;48.19531;939.9649;;;;
2023/08/07 14:22:41;;;;;;;0.4;0.4;;;;;;;17.98;50.99707;940.0461;;;;
2023/08/07 14:25:06;;;;;;;1.5;0.6;;;;;;;17.35;51.66699;940.0641;;;;
2023/08/07 14:27:33;;;;;;;0.5;0.4;;;;;;;17.43;53.11523;940.1445;;;;
2023/08/07 14:29:57;;;;;;;0.7;0.5;;;;;;;17.27;52.46875;940.1094;;;;
2023/08/07 14:32:23;;;;;;;2.2;0.5;;;;;;;17.32;51.39648;940.0814;;;;
2023/08/07 14:34:49;;;;;;;0.4;0.3;;;;;;;17.09;54.60352;940.0809;;;;
2023/08/07 14:37:13;;;;;;;0.4;0.4;;;;;;;17.24;52.73242;940.092;;;;
2023/08/07 14:39:40;;;;;;;0.7;0.3;;;;;;;17.61;53.48535;940.1364;;;;
2023/08/07 14:42:06;;;;;;;0.3;0.3;;;;;;;17.75;50.85449;940.2098;;;;
2023/08/07 14:44:31;;;;;;;0.5;0.5;;;;;;;17.93;50.43457;940.1984;;;;
2023/08/07 14:46:57;;;;;;;0.5;0.5;;;;;;;17.88;50.02148;940.1839;;;;
2023/08/07 14:49:25;;;;;;;0.5;0.4;;;;;;;17.83;49.35449;940.1387;;;;
2023/08/07 14:51:50;;;;;;;0.8;0.4;;;;;;;17.31;49.43555;940.2972;;;;
2023/08/07 14:54:15;;;;;;;0.4;0.4;;;;;;;17.11;49.93457;940.3678;;;;
2023/08/07 14:56:41;;;;;;;0.4;0.4;;;;;;;16.95;50.50781;940.347;;;;
2023/08/07 14:59:06;;;;;;;0.9;0.5;;;;;;;16.88;50.69531;940.3945;;;;
2023/08/07 15:01:33;;;;;;;0.5;0.5;;;;;;;16.84;50.38965;940.415;;;;
2023/08/07 15:03:58;;;;;;;0.6;0.5;;;;;;;16.97;51.41406;940.4328;;;;
2023/08/07 15:06:25;;;;;;;0.9;0.5;;;;;;;17.04;50.35449;940.5047;;;;
2023/08/07 15:08:50;;;;;;;0.6;0.6;;;;;;;17.03;51.61719;940.5064;;;;
2023/08/07 15:11:15;;;;;;;0.5;0.5;;;;;;;16.78;50.56934;940.6052;;;;
2023/08/07 15:13:41;;;;;;;0.4;0.4;;;;;;;16.52;51.47656;940.5598;;;;
2023/08/07 15:16:07;;;;;;;0.5;0.5;;;;;;;16.51;56.25488;940.5711;;;;
2023/08/07 15:18:32;;;;;;;0.5;0.5;;;;;;;16.62;53.9082;940.5028;;;;
2023/08/07 15:20:59;;;;;;;0.4;0.4;;;;;;;16.53;55.49414;940.5203;;;;
2023/08/07 15:23:23;;;;;;;0.5;0.4;;;;;;;16.52;54.96094;940.5389;;;;
2023/08/07 15:25:49;;;;;;;0.6;0.4;;;;;;;16.56;55.41797;940.5931;;;;
2023/08/07 15:28:14;;;;;;;0.7;0.7;;;;;;;16.88;54.65723;940.5947;;;;
2023/08/07 15:30:42;;;;;;;1.1;0.6;;;;;;;16.7;52.5166;940.5739;;;;
2023/08/07 15:33:07;;;;;;;0.4;0.4;;;;;;;16.62;56.96484;940.601;;;;
2023/08/07 15:35:33;;;;;;;0.4;0.4;;;;;;;16.65;54.7334;940.6046;;;;